Terminal Aerodrome Forecast
Issued by NWS

Home | Current Version | Previous Version | Text Only | Print | Product List | Glossary Off
Versions: 1 2 3 4 5 6 7 8 9 10 11 12 13 14 15 16 17 18 19 20 21 22 23

000
FTUS43 KBIS 231130
TAFJMS
TAF
KJMS 231130Z 2312/2412 35007KT P6SM SCT015 SCT100
      TEMPO 2312/2314 01005KT BKN019 OVC025
     FM231400 04011KT P6SM SCT010 OVC020
     FM231700 04012KT P6SM BKN025
     FM232100 04013KT P6SM BKN035
     FM240300 03013KT P6SM SCT025=

USA.gov is the U.S. government's official web portal to all federal, state and local government web resources and services.